createdAt,value
2023-04-19T00:00:43.551Z,195.31
2023-04-19T00:01:43.618Z,197.60
2023-04-19T00:02:43.738Z,196.23
2023-04-19T00:03:43.792Z,197.00
2023-04-19T00:04:43.775Z,196.20
2023-04-19T00:05:43.541Z,197.12
2023-04-19T00:06:43.553Z,196.39
2023-04-19T00:07:43.532Z,195.95
2023-04-19T00:08:43.530Z,197.25
2023-04-19T00:09:43.517Z,196.06
2023-04-19T00:10:43.535Z,196.56
2023-04-19T00:11:43.515Z,194.80
2023-04-19T00:12:43.519Z,195.44
2023-04-19T00:13:43.483Z,196.29
2023-04-19T00:14:43.475Z,196.45
2023-04-19T00:15:43.474Z,195.23
2023-04-19T00:16:43.471Z,196.38
2023-04-19T00:17:43.487Z,195.68
2023-04-19T00:18:43.454Z,196.59
2023-04-19T00:19:43.470Z,195.78
2023-04-19T00:20:43.419Z,196.80
2023-04-19T00:21:43.418Z,195.25
2023-04-19T00:22:43.423Z,195.78
2023-04-19T00:23:43.402Z,195.76
2023-04-19T00:24:43.424Z,195.98
2023-04-19T00:25:43.394Z,195.18
2023-04-19T00:26:43.383Z,195.59
2023-04-19T00:27:43.381Z,195.75
2023-04-19T00:28:43.369Z,195.15
2023-04-19T00:29:43.362Z,196.51
2023-04-19T00:30:43.522Z,194.67
2023-04-19T00:31:43.351Z,195.54
2023-04-19T00:32:43.418Z,196.45
2023-04-19T00:33:43.336Z,195.36
2023-04-19T00:34:43.352Z,195.83
2023-04-19T00:35:43.334Z,195.92
2023-04-19T00:36:43.308Z,195.67
2023-04-19T00:37:43.325Z,196.03
2023-04-19T00:38:43.280Z,196.26
2023-04-19T00:39:43.355Z,195.36
2023-04-19T00:40:43.332Z,196.27
2023-04-19T00:41:43.287Z,195.29
2023-04-19T00:42:43.274Z,195.98
2023-04-19T00:43:43.270Z,195.16
2023-04-19T00:44:43.286Z,196.34
2023-04-19T00:45:43.350Z,196.31
2023-04-19T00:46:43.314Z,194.67
2023-04-19T00:47:43.252Z,195.34
2023-04-19T00:48:43.273Z,195.64
2023-04-19T00:49:43.258Z,196.19
2023-04-19T00:50:43.209Z,194.47
2023-04-19T00:51:43.196Z,195.41
2023-04-19T00:52:43.197Z,195.54
2023-04-19T00:53:43.211Z,194.89
2023-04-19T00:54:43.213Z,195.15
2023-04-19T00:55:43.179Z,194.65
2023-04-19T00:56:43.151Z,194.43
2023-04-19T00:57:43.163Z,194.44
2023-04-19T00:58:43.172Z,194.67
2023-04-19T00:59:43.170Z,194.73
2023-04-19T01:00:43.140Z,193.54
2023-04-19T01:01:43.247Z,194.15
2023-04-19T01:02:43.246Z,194.64
2023-04-19T01:03:43.286Z,195.28
2023-04-19T01:04:43.100Z,195.22
2023-04-19T01:05:43.120Z,193.90
2023-04-19T01:06:43.115Z,194.33
2023-04-19T01:07:43.097Z,194.29
2023-04-19T01:08:43.098Z,194.34
2023-04-19T01:09:43.145Z,193.86
2023-04-19T01:10:43.060Z,194.96
2023-04-19T01:11:43.702Z,194.81
2023-04-19T01:12:43.037Z,195.56
2023-04-19T01:13:43.058Z,194.88
2023-04-19T01:14:43.043Z,194.13
2023-04-19T01:15:43.059Z,194.72
2023-04-19T01:16:43.059Z,193.07
2023-04-19T01:17:43.117Z,195.40
2023-04-19T01:18:42.998Z,195.81
2023-04-19T01:19:43.026Z,193.65
2023-04-19T01:20:43.036Z,193.97
2023-04-19T01:21:42.985Z,194.16
2023-04-19T01:22:42.979Z,194.86
2023-04-19T01:23:42.987Z,193.34
2023-04-19T01:24:43.005Z,193.91
2023-04-19T01:25:43.024Z,194.35
2023-04-19T01:26:43.051Z,192.55
2023-04-19T01:27:43.034Z,193.42
2023-04-19T01:28:43.225Z,193.03
2023-04-19T01:29:43.051Z,193.35
2023-04-19T01:30:43.056Z,194.79
2023-04-19T01:31:43.201Z,194.23
2023-04-19T01:32:43.130Z,194.46
2023-04-19T01:33:43.112Z,194.00
2023-04-19T01:34:43.148Z,194.35
2023-04-19T01:35:43.168Z,193.54
2023-04-19T01:36:43.175Z,193.53
2023-04-19T01:37:43.196Z,193.54
2023-04-19T01:38:43.154Z,193.50
2023-04-19T01:39:43.194Z,192.98
2023-04-19T01:40:43.194Z,192.02
2023-04-19T01:41:43.204Z,192.54
2023-04-19T01:42:43.207Z,192.72
2023-04-19T01:43:43.246Z,193.94
2023-04-19T01:44:43.262Z,192.79
2023-04-19T01:45:43.265Z,192.82
2023-04-19T01:46:43.306Z,194.21
2023-04-19T01:47:43.311Z,191.82
2023-04-19T01:48:43.302Z,193.07
2023-04-19T01:49:43.330Z,193.18
2023-04-19T01:50:43.335Z,193.15
2023-04-19T01:51:43.340Z,191.24
2023-04-19T01:52:43.355Z,193.09
2023-04-19T01:53:43.390Z,192.32
2023-04-19T01:54:43.404Z,192.68
2023-04-19T01:55:43.399Z,192.56
2023-04-19T01:56:43.426Z,193.16
2023-04-19T01:57:43.456Z,192.46
2023-04-19T01:58:43.447Z,192.33
2023-04-19T01:59:43.516Z,192.26
2023-04-19T02:00:43.496Z,192.11
2023-04-19T02:01:43.548Z,192.98
2023-04-19T02:02:43.636Z,193.67
2023-04-19T02:03:43.730Z,193.19
2023-04-19T02:04:43.560Z,192.34
2023-04-19T02:05:43.573Z,193.16
2023-04-19T02:06:43.597Z,192.02
2023-04-19T02:07:43.594Z,191.72
2023-04-19T02:08:43.638Z,192.84
2023-04-19T02:09:43.660Z,192.35
2023-04-19T02:10:43.657Z,191.44
2023-04-19T02:11:43.697Z,192.14
2023-04-19T02:12:43.693Z,192.84
2023-04-19T02:13:43.697Z,191.39
2023-04-19T02:14:43.744Z,191.68
2023-04-19T02:15:43.739Z,193.02
2023-04-19T02:16:43.763Z,191.18
2023-04-19T02:17:43.821Z,191.36
2023-04-19T02:18:43.799Z,191.52
2023-04-19T02:19:43.823Z,191.17
2023-04-19T02:20:43.837Z,192.11
2023-04-19T02:21:43.845Z,192.16
2023-04-19T02:22:43.901Z,190.94
2023-04-19T02:23:43.875Z,192.19
2023-04-19T02:24:43.905Z,191.12
2023-04-19T02:25:43.910Z,190.71
2023-04-19T02:26:43.949Z,192.83
2023-04-19T02:27:43.950Z,190.78
2023-04-19T02:28:43.989Z,192.38
2023-04-19T02:29:43.989Z,192.56
2023-04-19T02:30:43.999Z,192.42
2023-04-19T02:31:44.052Z,192.27
2023-04-19T02:32:44.082Z,192.44
2023-04-19T02:33:44.064Z,191.86
2023-04-19T02:34:44.081Z,191.23
2023-04-19T02:35:44.100Z,192.68
2023-04-19T02:36:44.102Z,191.50
2023-04-19T02:37:44.139Z,191.47
2023-04-19T02:38:44.144Z,191.58
2023-04-19T02:39:44.192Z,191.69
2023-04-19T02:40:44.188Z,191.63
2023-04-19T02:41:44.205Z,191.40
2023-04-19T02:42:44.219Z,191.60
2023-04-19T02:43:44.266Z,191.44
2023-04-19T02:44:44.256Z,190.01
2023-04-19T02:45:44.351Z,191.66
2023-04-19T02:46:44.296Z,193.16
2023-04-19T02:47:44.362Z,191.02
2023-04-19T02:48:44.329Z,191.30
2023-04-19T02:49:44.358Z,192.48
2023-04-19T02:50:44.398Z,191.93
2023-04-19T02:51:44.402Z,190.93
2023-04-19T02:52:44.411Z,190.89
2023-04-19T02:53:44.442Z,190.68
2023-04-19T02:54:44.447Z,192.05
2023-04-19T02:55:44.468Z,191.84
2023-04-19T02:56:44.501Z,191.08
2023-04-19T02:57:44.507Z,190.58
2023-04-19T02:58:44.542Z,191.29
2023-04-19T02:59:44.546Z,192.60
2023-04-19T03:00:44.561Z,189.96
2023-04-19T03:01:44.695Z,191.97
2023-04-19T03:02:44.705Z,191.03
2023-04-19T03:03:44.761Z,191.65
2023-04-19T03:04:44.648Z,191.60
2023-04-19T03:05:44.654Z,191.25
2023-04-19T03:06:44.726Z,190.73
2023-04-19T03:07:44.828Z,190.59
2023-04-19T03:08:44.758Z,191.48
2023-04-19T03:09:44.790Z,191.33
2023-04-19T03:10:44.805Z,190.66
2023-04-19T03:11:44.813Z,190.89
2023-04-19T03:12:44.834Z,191.54
2023-04-19T03:13:44.878Z,191.82
2023-04-19T03:14:44.910Z,190.25
2023-04-19T03:15:45.014Z,191.77
2023-04-19T03:16:44.970Z,191.49
2023-04-19T03:17:45.063Z,190.46
2023-04-19T03:18:46.695Z,191.93
2023-04-19T03:19:45.009Z,192.60
2023-04-19T03:20:44.973Z,191.56
2023-04-19T03:21:44.958Z,191.87
2023-04-19T03:22:44.977Z,191.51
2023-04-19T03:23:44.953Z,191.66
2023-04-19T03:24:44.939Z,191.40
2023-04-19T03:25:44.921Z,191.31
2023-04-19T03:26:45.702Z,191.33
2023-04-19T03:27:44.920Z,191.31
2023-04-19T03:28:44.918Z,191.45
2023-04-19T03:29:45.813Z,190.26
2023-04-19T03:30:44.883Z,192.07
2023-04-19T03:31:45.126Z,192.22
2023-04-19T03:32:44.907Z,190.89
2023-04-19T03:33:45.235Z,190.15
2023-04-19T03:34:44.894Z,190.07
2023-04-19T03:35:44.892Z,190.46
2023-04-19T03:36:44.910Z,190.10
2023-04-19T03:37:44.930Z,192.91
2023-04-19T03:38:45.023Z,191.06
2023-04-19T03:39:44.995Z,191.00
2023-04-19T03:40:45.035Z,190.82
2023-04-19T03:41:45.031Z,190.03
2023-04-19T03:42:45.069Z,189.58
2023-04-19T03:43:45.289Z,191.11
2023-04-19T03:44:45.122Z,191.95
2023-04-19T03:45:45.147Z,189.53
2023-04-19T03:46:45.242Z,190.62
2023-04-19T03:47:45.309Z,190.82
2023-04-19T03:48:45.195Z,189.77
2023-04-19T03:49:45.231Z,190.22
2023-04-19T03:50:45.247Z,189.59
2023-04-19T03:51:45.297Z,187.97
2023-04-19T03:52:45.295Z,190.78
2023-04-19T03:53:45.337Z,190.52
2023-04-19T03:54:45.350Z,190.46
2023-04-19T03:55:45.413Z,190.48
2023-04-19T03:56:45.405Z,190.01
2023-04-19T03:57:45.415Z,190.31
2023-04-19T03:58:45.458Z,188.85
2023-04-19T03:59:45.613Z,189.36
2023-04-19T04:00:45.502Z,190.08
2023-04-19T04:01:45.542Z,190.45
2023-04-19T04:02:45.789Z,190.47
2023-04-19T04:03:45.891Z,190.54
2023-04-19T04:04:45.658Z,189.68
2023-04-19T04:05:45.604Z,189.56
2023-04-19T04:06:45.627Z,188.73
2023-04-19T04:07:45.682Z,188.09
2023-04-19T04:08:45.769Z,190.51
2023-04-19T04:09:45.731Z,188.95
2023-04-19T04:10:45.727Z,189.38
2023-04-19T04:11:45.752Z,188.66
2023-04-19T04:12:45.770Z,190.08
2023-04-19T04:13:45.794Z,190.65
2023-04-19T04:14:45.858Z,188.26
2023-04-19T04:15:45.845Z,189.94
2023-04-19T04:16:45.895Z,189.02
2023-04-19T04:17:45.962Z,188.83
2023-04-19T04:18:45.916Z,188.61
2023-04-19T04:19:45.948Z,188.96
2023-04-19T04:20:46.039Z,189.09
2023-04-19T04:21:46.025Z,189.45
2023-04-19T04:22:46.051Z,188.66
2023-04-19T04:23:46.053Z,189.06
2023-04-19T04:24:46.052Z,188.65
2023-04-19T04:25:46.089Z,188.28
2023-04-19T04:26:46.141Z,188.68
2023-04-19T04:27:46.153Z,187.06
2023-04-19T04:28:46.177Z,188.81
2023-04-19T04:29:46.197Z,188.21
2023-04-19T04:30:46.220Z,189.81
2023-04-19T04:31:46.269Z,189.84
2023-04-19T04:32:46.328Z,189.07
2023-04-19T04:33:46.314Z,186.54
2023-04-19T04:34:46.323Z,189.25
2023-04-19T04:35:46.355Z,188.75
2023-04-19T04:36:46.387Z,188.82
2023-04-19T04:37:46.427Z,189.93
2023-04-19T04:38:46.429Z,188.90
2023-04-19T04:39:46.521Z,188.82
2023-04-19T04:40:46.606Z,188.04
2023-04-19T04:41:46.526Z,187.78
2023-04-19T04:42:46.564Z,187.58
2023-04-19T04:43:46.612Z,188.83
2023-04-19T04:44:46.652Z,187.15
2023-04-19T04:45:46.669Z,187.88
2023-04-19T04:46:46.681Z,188.16
2023-04-19T04:47:46.737Z,188.30
2023-04-19T04:48:46.755Z,188.77
2023-04-19T04:49:46.803Z,188.06
2023-04-19T04:50:46.803Z,186.58
2023-04-19T04:51:46.843Z,187.17
2023-04-19T04:52:46.892Z,188.76
2023-04-19T04:53:46.904Z,187.89
2023-04-19T04:54:46.931Z,188.91
2023-04-19T04:55:46.943Z,188.24
2023-04-19T04:56:47.017Z,187.22
2023-04-19T04:57:47.032Z,188.89
2023-04-19T04:58:47.067Z,188.04
2023-04-19T04:59:47.095Z,186.98
2023-04-19T05:00:47.273Z,186.92
2023-04-19T05:01:47.209Z,187.88
2023-04-19T05:02:47.298Z,188.06
2023-04-19T05:03:47.229Z,188.40
2023-04-19T05:04:47.342Z,189.43
2023-04-19T05:05:47.254Z,187.33
2023-04-19T05:06:47.264Z,186.19
2023-04-19T05:07:47.326Z,187.59
2023-04-19T05:08:47.315Z,187.71
2023-04-19T05:09:47.384Z,187.21
2023-04-19T05:10:47.379Z,187.29
2023-04-19T05:11:47.381Z,187.80
2023-04-19T05:12:47.503Z,186.57
2023-04-19T05:13:47.442Z,188.46
2023-04-19T05:14:47.459Z,187.94
2023-04-19T05:15:47.468Z,187.79
2023-04-19T05:16:47.514Z,186.80
2023-04-19T05:17:47.572Z,186.07
2023-04-19T05:18:47.532Z,185.59
2023-04-19T05:19:47.558Z,187.55
2023-04-19T05:20:47.616Z,188.26
2023-04-19T05:21:47.600Z,187.29
2023-04-19T05:22:47.642Z,186.87
2023-04-19T05:23:47.669Z,186.36
2023-04-19T05:24:47.674Z,186.53
2023-04-19T05:25:47.688Z,186.08
2023-04-19T05:26:47.692Z,186.30
2023-04-19T05:27:47.742Z,185.26
2023-04-19T05:28:47.748Z,187.47
2023-04-19T05:29:47.739Z,185.05
2023-04-19T05:30:47.748Z,186.47
2023-04-19T05:31:47.858Z,186.11
2023-04-19T05:32:47.881Z,184.99
2023-04-19T05:33:47.840Z,184.85
2023-04-19T05:34:47.787Z,185.44
2023-04-19T05:35:47.887Z,184.90
2023-04-19T05:36:47.866Z,183.55
2023-04-19T05:37:47.791Z,185.15
2023-04-19T05:38:47.843Z,183.98
2023-04-19T05:39:47.839Z,184.15
2023-04-19T05:40:47.919Z,182.62
2023-04-19T05:41:47.961Z,184.81
2023-04-19T05:42:48.817Z,186.46
2023-04-19T05:43:48.298Z,189.46
2023-04-19T05:44:48.178Z,192.02
2023-04-19T05:45:48.188Z,192.95
2023-04-19T05:46:48.232Z,195.13
2023-04-19T05:47:48.382Z,197.50
2023-04-19T05:48:48.345Z,199.19
2023-04-19T05:49:48.498Z,202.62
2023-04-19T05:50:48.419Z,204.35
2023-04-19T05:51:48.644Z,206.56
2023-04-19T05:52:48.562Z,212.89
2023-04-19T05:53:48.804Z,214.30
2023-04-19T05:54:48.811Z,215.62
2023-04-19T05:55:49.300Z,220.98
2023-04-19T05:56:48.594Z,223.00
2023-04-19T05:57:48.622Z,226.92
2023-04-19T05:58:48.791Z,230.15
2023-04-19T05:59:49.328Z,231.90
2023-04-19T06:00:48.653Z,234.89
2023-04-19T06:01:48.688Z,237.58
2023-04-19T06:02:48.783Z,239.82
2023-04-19T06:03:48.825Z,242.17
2023-04-19T06:04:48.765Z,244.52
2023-04-19T06:05:48.704Z,248.78
2023-04-19T06:06:48.631Z,249.51
2023-04-19T06:07:55.188Z,250.00
2023-04-19T06:08:49.629Z,250.21
2023-04-19T06:09:48.690Z,250.84
2023-04-19T06:10:54.055Z,252.60
2023-04-19T06:11:51.251Z,250.32
2023-04-19T06:12:48.596Z,251.71
2023-04-19T06:13:48.578Z,254.99
2023-04-19T06:14:48.575Z,256.68
2023-04-19T06:15:48.857Z,263.27
2023-04-19T06:16:48.620Z,252.64
2023-04-19T06:17:48.613Z,248.27
2023-04-19T06:18:48.585Z,249.63
2023-04-19T06:19:48.553Z,249.83
2023-04-19T06:20:48.538Z,245.52
2023-04-19T06:21:48.523Z,248.68
2023-04-19T06:22:48.536Z,245.60
2023-04-19T06:23:48.536Z,250.17
2023-04-19T06:24:48.529Z,246.11
2023-04-19T06:25:48.535Z,249.26
2023-04-19T06:26:48.490Z,247.32
2023-04-19T06:27:48.495Z,248.57
2023-04-19T06:28:48.482Z,249.82
2023-04-19T06:29:50.516Z,247.16
2023-04-19T06:30:48.460Z,247.36
2023-04-19T06:31:48.552Z,248.12
2023-04-19T06:32:48.479Z,248.72
2023-04-19T06:33:48.444Z,237.47
2023-04-19T06:34:48.800Z,217.24
2023-04-19T06:35:48.423Z,212.57
2023-04-19T06:36:48.429Z,205.87
2023-04-19T06:37:49.431Z,199.23
2023-04-19T06:38:48.442Z,198.54
2023-04-19T06:39:48.423Z,196.89
2023-04-19T06:40:48.415Z,194.89
2023-04-19T06:41:48.439Z,190.05
2023-04-19T06:42:48.420Z,184.36
2023-04-19T06:43:48.487Z,180.87
2023-04-19T06:44:48.489Z,173.17
2023-04-19T06:45:48.573Z,170.83
2023-04-19T06:46:48.595Z,161.19
2023-04-19T06:47:48.645Z,161.89
2023-04-19T06:48:48.667Z,155.91
2023-04-19T06:49:48.766Z,155.98
2023-04-19T06:50:48.726Z,155.44
2023-04-19T06:51:48.742Z,151.96
2023-04-19T06:52:48.705Z,143.83
2023-04-19T06:53:48.704Z,141.58
2023-04-19T06:54:48.728Z,151.16
2023-04-19T06:55:48.781Z,143.49
2023-04-19T06:56:48.736Z,140.09
2023-04-19T06:57:48.779Z,149.32
2023-04-19T06:58:48.769Z,150.73
2023-04-19T06:59:48.791Z,152.11
2023-04-19T07:00:48.785Z,154.89
2023-04-19T07:01:49.021Z,155.86
2023-04-19T07:02:48.997Z,155.59
2023-04-19T07:03:49.198Z,159.06
2023-04-19T07:04:49.083Z,157.12
2023-04-19T07:05:48.923Z,157.49
2023-04-19T07:06:48.968Z,159.07
2023-04-19T07:07:49.036Z,159.27
2023-04-19T07:08:50.067Z,158.94
2023-04-19T07:09:49.222Z,159.72
2023-04-19T07:10:49.215Z,160.19
2023-04-19T07:11:49.253Z,157.25
2023-04-19T07:12:49.337Z,157.76
2023-04-19T07:13:49.351Z,153.11
2023-04-19T07:14:49.410Z,151.08
2023-04-19T07:15:49.564Z,145.44
2023-04-19T07:16:50.872Z,149.76
2023-04-19T07:17:49.578Z,149.45
2023-04-19T07:18:49.652Z,143.72
2023-04-19T07:19:50.283Z,148.36
2023-04-19T07:20:49.844Z,144.15
2023-04-19T07:21:49.870Z,139.88
2023-04-19T07:22:49.939Z,139.15
2023-04-19T07:23:49.912Z,138.69
2023-04-19T07:24:50.006Z,160.06
2023-04-19T07:25:50.020Z,148.67
2023-04-19T07:26:50.805Z,136.12
2023-04-19T07:27:50.032Z,133.05
2023-04-19T07:28:49.991Z,136.57
2023-04-19T07:29:50.368Z,144.64
2023-04-19T07:30:50.090Z,143.33
2023-04-19T07:31:50.070Z,142.25
2023-04-19T07:32:50.127Z,141.51
2023-04-19T07:33:50.045Z,147.14
2023-04-19T07:34:50.140Z,151.78
2023-04-19T07:35:50.315Z,158.42
2023-04-19T07:36:50.078Z,163.00
2023-04-19T07:37:50.167Z,160.22
2023-04-19T07:38:50.212Z,158.13
2023-04-19T07:39:50.319Z,145.57
2023-04-19T07:40:50.863Z,154.73
2023-04-19T07:41:50.375Z,156.34
2023-04-19T07:42:50.441Z,151.79
2023-04-19T07:43:50.531Z,149.19
2023-04-19T07:44:50.537Z,150.82
2023-04-19T07:45:50.860Z,156.84
2023-04-19T07:46:50.762Z,162.08
2023-04-19T07:47:50.866Z,165.20
2023-04-19T07:48:50.779Z,166.27
2023-04-19T07:49:50.826Z,171.36
2023-04-19T07:50:51.303Z,171.11
2023-04-19T07:51:50.892Z,174.95
2023-04-19T07:52:50.903Z,178.75
2023-04-19T07:53:50.992Z,182.23
2023-04-19T07:54:50.959Z,184.35
2023-04-19T07:55:50.936Z,185.09
2023-04-19T07:56:50.926Z,189.64
2023-04-19T07:57:51.792Z,191.47
2023-04-19T07:59:04.263Z,192.72
2023-04-19T07:59:51.965Z,192.80
2023-04-19T08:00:50.995Z,193.02
2023-04-19T08:01:51.017Z,193.50
2023-04-19T08:02:51.166Z,194.21
2023-04-19T08:03:51.203Z,193.86
2023-04-19T08:04:51.161Z,196.96
2023-04-19T08:05:51.007Z,199.33
2023-04-19T08:06:50.906Z,201.12
2023-04-19T08:07:51.785Z,207.20
2023-04-19T08:08:50.963Z,205.04
2023-04-19T08:09:51.116Z,205.91
2023-04-19T08:10:51.076Z,206.08
2023-04-19T08:11:51.097Z,207.57
2023-04-19T08:14:04.716Z,209.98
2023-04-19T08:15:02.612Z,210.08
2023-04-19T08:17:14.492Z,210.36
2023-04-19T08:17:52.132Z,210.43
2023-04-19T08:18:51.109Z,211.73
2023-04-19T08:19:51.320Z,213.02
2023-04-19T08:20:51.319Z,216.73
2023-04-19T08:21:51.115Z,217.99
2023-04-19T08:22:51.090Z,219.46
2023-04-19T08:23:53.509Z,224.07
2023-04-19T08:24:51.098Z,224.16
2023-04-19T08:25:51.066Z,223.22
2023-04-19T08:26:51.057Z,223.67
2023-04-19T08:27:51.063Z,224.11
2023-04-19T08:28:51.030Z,223.44
2023-04-19T08:29:51.072Z,222.05
2023-04-19T08:30:51.345Z,223.41
2023-04-19T08:31:51.095Z,219.48
2023-04-19T08:32:51.089Z,221.34
2023-04-19T08:33:51.018Z,222.55
2023-04-19T08:34:51.138Z,220.17
2023-04-19T08:35:50.989Z,221.48
2023-04-19T08:37:00.070Z,221.18
2023-04-19T08:37:52.079Z,221.34
2023-04-19T08:39:02.021Z,221.23
2023-04-19T08:39:52.351Z,221.20
2023-04-19T08:40:51.163Z,221.01
2023-04-19T08:42:02.965Z,221.58
2023-04-19T08:42:52.832Z,221.30
2023-04-19T08:43:50.931Z,220.30
2023-04-19T08:45:51.397Z,221.21
2023-04-19T08:46:50.983Z,221.40
2023-04-19T08:47:59.664Z,220.30
2023-04-19T08:48:51.951Z,221.32
2023-04-19T08:50:00.418Z,221.41
2023-04-19T08:51:03.444Z,221.34
2023-04-19T08:51:51.919Z,221.35
2023-04-19T08:52:56.147Z,221.64
2023-04-19T08:53:51.880Z,221.37
2023-04-19T08:54:51.336Z,221.46
2023-04-19T08:56:08.761Z,220.51
2023-04-19T08:56:51.839Z,221.29
2023-04-19T08:57:50.817Z,220.88
2023-04-19T08:59:01.024Z,220.48
2023-04-19T08:59:51.840Z,221.22
2023-04-19T09:00:50.885Z,219.46
2023-04-19T09:01:50.840Z,220.64
2023-04-19T09:02:51.036Z,219.76
2023-04-19T09:04:04.773Z,219.34
2023-04-19T09:04:52.008Z,221.26
2023-04-19T09:05:51.573Z,221.01
2023-04-19T09:06:50.757Z,219.50
2023-04-19T09:07:50.760Z,219.93
2023-04-19T09:08:50.754Z,219.50
2023-04-19T09:10:01.963Z,219.74
2023-04-19T09:10:51.734Z,219.78
2023-04-19T09:11:50.741Z,221.39
2023-04-19T09:12:50.727Z,222.11
2023-04-19T09:13:51.796Z,220.73
2023-04-19T09:15:01.209Z,219.65
2023-04-19T09:15:51.716Z,219.84
2023-04-19T09:16:50.695Z,219.77
2023-04-19T09:17:50.718Z,217.24
2023-04-19T09:18:59.972Z,217.81
2023-04-19T09:19:51.821Z,219.77
2023-04-19T09:20:50.693Z,216.16
2023-04-19T09:21:50.647Z,211.71
2023-04-19T09:22:50.672Z,205.61
2023-04-19T09:23:50.637Z,201.02
2023-04-19T09:26:50.625Z,197.05
2023-04-19T09:27:50.608Z,191.18
2023-04-19T09:28:50.674Z,187.59
2023-04-19T09:29:50.595Z,186.17
2023-04-19T09:31:03.128Z,183.02
2023-04-19T09:31:52.371Z,184.64
2023-04-19T09:32:50.727Z,179.65
2023-04-19T09:33:50.575Z,178.51
2023-04-19T09:34:51.356Z,178.80
2023-04-19T09:35:51.343Z,178.01
2023-04-19T09:37:00.510Z,177.27
2023-04-19T09:38:51.608Z,177.46
2023-04-19T09:39:50.616Z,177.72
2023-04-19T09:40:50.656Z,175.65
2023-04-19T09:41:50.569Z,172.83
2023-04-19T09:45:50.910Z,174.12
2023-04-19T09:46:53.089Z,172.36
2023-04-19T09:47:50.561Z,174.07
2023-04-19T09:48:50.513Z,171.44
2023-04-19T09:49:50.815Z,167.13
2023-04-19T09:50:57.379Z,167.43
2023-04-19T09:51:51.845Z,172.65
2023-04-19T09:52:50.501Z,168.67
2023-04-19T09:53:50.453Z,167.26
2023-04-19T09:54:50.490Z,167.94
2023-04-19T09:56:00.229Z,163.80
2023-04-19T09:56:51.904Z,166.86
2023-04-19T09:57:50.467Z,164.00
2023-04-19T09:58:54.607Z,160.81
2023-04-19T09:59:51.435Z,166.55
2023-04-19T10:00:55.032Z,162.28
2023-04-19T10:01:51.879Z,167.98
2023-04-19T10:02:52.106Z,166.79
2023-04-19T10:03:51.523Z,165.32
2023-04-19T10:05:51.927Z,166.45
2023-04-19T10:07:13.987Z,162.02
2023-04-19T10:07:51.411Z,158.30
2023-04-19T10:08:50.379Z,156.54
2023-04-19T10:11:52.135Z,158.98
2023-04-19T10:13:07.473Z,160.07
2023-04-19T10:13:51.341Z,163.48
2023-04-19T10:14:50.310Z,159.23
2023-04-19T10:15:54.049Z,152.99
2023-04-19T10:16:51.350Z,151.98
2023-04-19T10:17:50.374Z,152.27
2023-04-19T10:18:50.691Z,153.07
2023-04-19T10:19:50.279Z,154.07
2023-04-19T10:20:50.263Z,154.62
2023-04-19T10:21:50.264Z,143.21
2023-04-19T10:22:50.275Z,152.25
2023-04-19T10:23:50.286Z,156.38
2023-04-19T10:24:50.238Z,156.73
2023-04-19T10:25:50.244Z,157.71
2023-04-19T10:26:50.250Z,157.77
2023-04-19T10:27:50.257Z,165.58
2023-04-19T10:28:50.235Z,169.78
2023-04-19T10:29:50.211Z,172.59
2023-04-19T10:30:50.205Z,175.55
2023-04-19T10:31:50.412Z,176.95
2023-04-19T10:32:50.314Z,176.56
2023-04-19T10:33:50.291Z,178.42
2023-04-19T10:34:50.333Z,179.42
2023-04-19T10:35:50.327Z,179.53
2023-04-19T10:36:50.877Z,181.07
2023-04-19T10:37:50.399Z,181.15
2023-04-19T10:38:50.398Z,181.76
2023-04-19T10:39:50.412Z,180.87
2023-04-19T10:40:50.896Z,182.79
2023-04-19T10:41:50.499Z,182.47
2023-04-19T10:42:50.508Z,183.39
2023-04-19T10:43:50.541Z,182.89
2023-04-19T10:44:50.577Z,183.33
2023-04-19T10:45:50.932Z,183.67
2023-04-19T10:46:50.892Z,184.06
2023-04-19T10:47:50.729Z,184.13
2023-04-19T10:48:50.748Z,184.52
2023-04-19T10:49:50.697Z,184.69
2023-04-19T10:50:50.762Z,184.19
2023-04-19T10:51:50.778Z,184.74
2023-04-19T10:52:50.801Z,185.65
2023-04-19T10:53:50.900Z,185.04
2023-04-19T10:54:50.861Z,184.12
2023-04-19T10:55:50.907Z,185.37
2023-04-19T10:56:51.033Z,185.30
2023-04-19T10:57:51.889Z,183.95
2023-04-19T10:58:50.985Z,184.79
2023-04-19T10:59:51.829Z,184.71
2023-04-19T11:00:51.064Z,182.73
2023-04-19T11:01:51.222Z,184.03
2023-04-19T11:02:51.267Z,183.03
2023-04-19T11:03:51.303Z,183.98
2023-04-19T11:04:51.197Z,183.81
2023-04-19T11:05:51.341Z,183.61
2023-04-19T11:06:51.376Z,182.94
2023-04-19T11:07:51.344Z,183.14
2023-04-19T11:08:51.326Z,182.36
2023-04-19T11:09:51.452Z,182.13
2023-04-19T11:10:53.278Z,182.52
2023-04-19T11:11:51.967Z,183.07
2023-04-19T11:12:51.471Z,182.44
2023-04-19T11:13:51.500Z,183.19
2023-04-19T11:14:51.571Z,183.79
2023-04-19T11:15:51.644Z,182.68
2023-04-19T11:16:51.712Z,182.01
2023-04-19T11:18:00.949Z,182.27
2023-04-19T11:18:52.666Z,182.32
2023-04-19T11:19:51.672Z,182.41
2023-04-19T11:20:51.644Z,182.58
2023-04-19T11:21:51.926Z,182.40
2023-04-19T11:22:51.648Z,184.10
2023-04-19T11:23:51.616Z,181.97
2023-04-19T11:24:51.620Z,183.18
2023-04-19T11:25:51.628Z,181.01
2023-04-19T11:26:54.026Z,180.76
2023-04-19T11:27:51.588Z,182.89
2023-04-19T11:28:51.571Z,182.11
2023-04-19T11:29:51.576Z,182.03
2023-04-19T11:30:51.552Z,180.92
2023-04-19T11:31:51.639Z,182.87
2023-04-19T11:32:51.619Z,182.88
2023-04-19T11:33:51.561Z,181.58
2023-04-19T11:34:51.537Z,181.67
2023-04-19T11:35:51.542Z,181.86
2023-04-19T11:36:51.556Z,181.74
2023-04-19T11:37:51.517Z,181.84
2023-04-19T11:38:51.497Z,182.14
2023-04-19T11:39:51.511Z,182.80
2023-04-19T11:40:51.478Z,181.60
2023-04-19T11:41:51.513Z,181.55
2023-04-19T11:42:51.475Z,181.53
2023-04-19T11:43:51.494Z,182.75
2023-04-19T11:44:51.459Z,181.38
2023-04-19T11:45:51.478Z,181.80
2023-04-19T11:46:51.509Z,182.86
2023-04-19T11:47:51.524Z,183.08
2023-04-19T11:48:51.493Z,182.44
2023-04-19T11:49:51.471Z,181.75
2023-04-19T11:50:51.421Z,181.67
2023-04-19T11:51:51.431Z,182.48
2023-04-19T11:52:51.410Z,181.04
2023-04-19T11:53:51.439Z,183.53
2023-04-19T11:54:51.388Z,181.71
2023-04-19T11:55:51.502Z,181.78
2023-04-19T11:56:51.380Z,180.60
2023-04-19T11:57:51.408Z,180.86
2023-04-19T11:58:51.418Z,180.48
2023-04-19T11:59:51.379Z,181.00
2023-04-19T12:00:51.380Z,180.57
2023-04-19T12:01:51.905Z,181.23
2023-04-19T12:02:51.531Z,181.60
2023-04-19T12:03:51.765Z,181.54
2023-04-19T12:04:51.767Z,180.35
2023-04-19T12:05:51.658Z,182.98
2023-04-19T12:06:51.917Z,182.20
2023-04-19T12:07:51.719Z,179.21
2023-04-19T12:08:51.802Z,180.45
2023-04-19T12:09:51.838Z,181.17
2023-04-19T12:10:51.887Z,180.54
2023-04-19T12:11:52.416Z,181.36
2023-04-19T12:12:51.979Z,181.03
2023-04-19T12:13:52.043Z,181.17
2023-04-19T12:14:52.120Z,181.10
2023-04-19T12:15:52.138Z,180.95
2023-04-19T12:16:52.308Z,181.79
2023-04-19T12:17:57.380Z,181.39
2023-04-19T12:18:53.287Z,181.42
2023-04-19T12:19:52.221Z,181.55
2023-04-19T12:20:52.219Z,180.34
2023-04-19T12:21:52.202Z,181.39
2023-04-19T12:22:52.185Z,182.80
2023-04-19T12:23:52.193Z,180.80
2023-04-19T12:24:52.191Z,179.34
2023-04-19T12:25:52.198Z,180.79
2023-04-19T12:26:54.601Z,180.20
2023-04-19T12:27:52.169Z,181.16
2023-04-19T12:28:52.162Z,180.54
2023-04-19T12:29:52.159Z,178.97
2023-04-19T12:30:52.153Z,179.61
2023-04-19T12:31:52.225Z,178.74
2023-04-19T12:32:52.169Z,180.71
2023-04-19T12:33:52.163Z,180.68
2023-04-19T12:34:52.131Z,180.62
2023-04-19T12:35:52.083Z,179.35
2023-04-19T12:36:52.102Z,178.13
2023-04-19T12:37:52.075Z,180.02
2023-04-19T12:38:52.073Z,179.11
2023-04-19T12:39:52.984Z,181.52
2023-04-19T12:40:52.078Z,180.44